Time;durP1;ratioP1;P1;durP2;ratioP2;P2;SDS_P1;SDS_P2;PMS_P1;PMS_P2;Temp;Humidity;BMP_temperature;BMP_pressure;BME280_temperature;BME280_humidity;BME280_pressure;Samples;Min_cycle;Max_cycle;Signal;HPM_P1;HPM_P2
2021/03/14 00:00:00;;;;;;;4.10;2.30;;;;;;;2.91;92.25;98202.16;5054612;28;20652;-72
2021/03/14 00:02:26;;;;;;;7.27;2.67;;;;;;;2.95;92.11;98182.56;5053340;28;20181;-72
2021/03/14 00:04:51;;;;;;;4.10;2.20;;;;;;;2.92;92.30;98203.00;5074678;22;20233;-70
2021/03/14 00:07:16;;;;;;;6.47;2.23;;;;;;;2.95;92.39;98189.63;5035499;28;20187;-71
2021/03/14 00:09:42;;;;;;;5.57;2.40;;;;;;;2.91;92.20;98186.34;5052188;28;20182;-71
2021/03/14 00:12:07;;;;;;;6.87;2.30;;;;;;;2.91;91.69;98199.50;5052199;28;20188;-71
2021/03/14 00:14:33;;;;;;;4.07;1.83;;;;;;;2.93;92.05;98157.25;5053216;28;20555;-71
2021/03/14 00:16:58;;;;;;;3.33;2.00;;;;;;;2.96;90.72;98207.13;5051991;28;20574;-71
2021/03/14 00:19:24;;;;;;;4.90;2.33;;;;;;;2.98;91.36;98221.06;5052025;28;20659;-70
2021/03/14 00:21:49;;;;;;;3.87;2.07;;;;;;;2.89;92.23;98216.34;5035350;28;20194;-70
2021/03/14 00:24:14;;;;;;;3.77;2.27;;;;;;;2.91;92.37;98217.09;5051921;28;20207;-71
2021/03/14 00:26:41;;;;;;;4.40;2.37;;;;;;;2.91;92.90;98199.50;5035638;28;20568;-72
2021/03/14 00:29:07;;;;;;;3.63;1.93;;;;;;;2.97;91.56;98203.53;5035013;28;20666;-71
2021/03/14 00:31:32;;;;;;;2.93;2.10;;;;;;;2.91;92.32;98228.50;5051853;28;20182;-71
2021/03/14 00:33:58;;;;;;;3.23;1.70;;;;;;;2.87;93.35;98212.97;5051913;28;20270;-71
2021/03/14 00:36:23;;;;;;;6.73;1.73;;;;;;;2.94;92.59;98236.19;5051834;28;20647;-71
2021/03/14 00:38:49;;;;;;;5.07;1.80;;;;;;;2.91;93.44;98217.09;5035149;28;20343;-71
2021/03/14 00:41:14;;;;;;;3.87;1.90;;;;;;;2.94;92.68;98233.56;5052059;28;20322;-71
2021/03/14 00:43:39;;;;;;;3.13;1.87;;;;;;;2.93;92.64;98234.50;5034990;28;20202;-71
2021/03/14 00:46:05;;;;;;;5.40;1.97;;;;;;;2.92;92.23;98272.34;5051764;28;20531;-72
2021/03/14 00:48:30;;;;;;;2.03;1.60;;;;;;;2.92;92.95;98239.88;5051833;28;20175;-72
2021/03/14 00:50:55;;;;;;;2.97;1.83;;;;;;;2.93;92.80;98273.19;5035097;28;20176;-71
2021/03/14 00:53:21;;;;;;;7.57;1.87;;;;;;;2.86;92.88;98267.47;5034869;28;20704;-72
2021/03/14 00:55:46;;;;;;;4.97;1.73;;;;;;;2.84;93.34;98237.72;5034911;28;20185;-73
2021/03/14 00:58:12;;;;;;;5.73;1.87;;;;;;;2.91;92.69;98259.25;5034919;28;20178;-72
2021/03/14 01:00:37;;;;;;;6.03;1.90;;;;;;;2.88;93.09;98262.09;5035036;28;20702;-73
2021/03/14 01:03:03;;;;;;;5.23;1.80;;;;;;;2.90;93.02;98268.09;5034750;28;20189;-72
2021/03/14 01:05:28;;;;;;;8.63;2.10;;;;;;;2.91;93.34;98296.16;5052043;28;20181;-72
2021/03/14 01:07:54;;;;;;;5.43;1.70;;;;;;;2.87;93.51;98263.03;5035123;28;20188;-72
2021/03/14 01:10:19;;;;;;;4.00;1.60;;;;;;;2.86;93.37;98271.88;5035104;28;20173;-72
2021/03/14 01:12:44;;;;;;;3.73;1.77;;;;;;;2.86;94.17;98251.66;5051733;28;20228;-73
2021/03/14 01:15:11;;;;;;;2.93;1.87;;;;;;;2.88;94.08;98270.00;5051419;28;20326;-72
2021/03/14 01:17:37;;;;;;;3.37;2.00;;;;;;;2.86;94.50;98274.50;5035562;28;20177;-73
2021/03/14 01:20:05;;;;;;;10.53;2.23;;;;;;;2.82;94.01;98281.75;5051552;28;20580;-73
2021/03/14 01:22:30;;;;;;;3.87;2.00;;;;;;;2.85;94.20;98305.28;5051377;28;20213;-74
2021/03/14 01:24:55;;;;;;;6.33;2.20;;;;;;;2.87;94.58;98286.75;5051862;28;20227;-74
2021/03/14 01:27:21;;;;;;;4.07;2.03;;;;;;;2.86;94.13;98261.34;5051589;28;20174;-74
2021/03/14 01:29:46;;;;;;;4.37;1.80;;;;;;;2.88;94.33;98291.91;5034746;28;20184;-74
2021/03/14 01:32:11;;;;;;;5.47;2.07;;;;;;;2.84;93.99;98311.50;5051366;28;20179;-74
2021/03/14 01:34:37;;;;;;;5.07;1.83;;;;;;;2.86;94.42;98321.94;5034630;28;20192;-73
2021/03/14 01:37:02;;;;;;;2.37;1.73;;;;;;;2.82;94.45;98306.31;5034686;28;20539;-73
2021/03/14 01:39:27;;;;;;;4.60;1.50;;;;;;;2.80;94.31;98331.06;5051356;28;20200;-74
2021/03/14 01:41:52;;;;;;;4.63;1.40;;;;;;;2.75;93.91;98314.69;5055031;28;20181;-74
2021/03/14 01:44:18;;;;;;;2.10;1.60;;;;;;;2.71;94.01;98273.69;5054768;28;20289;-74
2021/03/14 01:46:43;;;;;;;3.70;1.70;;;;;;;2.72;94.75;98315.72;5038231;28;20174;-73
2021/03/14 01:49:09;;;;;;;4.30;1.57;;;;;;;2.74;94.61;98319.13;5038308;28;20614;-74
2021/03/14 01:51:34;;;;;;;4.10;1.80;;;;;;;2.76;93.96;98319.03;5054892;28;20720;-73
2021/03/14 01:54:00;;;;;;;2.13;1.37;;;;;;;2.70;94.14;98308.88;5055615;28;20193;-73
2021/03/14 01:56:25;;;;;;;4.40;1.70;;;;;;;2.70;94.71;98293.91;5055573;28;20263;-73
2021/03/14 01:58:50;;;;;;;2.07;1.50;;;;;;;2.68;94.79;98331.81;5056492;28;20175;-72
2021/03/14 02:01:16;;;;;;;3.97;1.30;;;;;;;2.66;94.28;98297.66;5038369;28;20181;-73
2021/03/14 02:03:41;;;;;;;2.20;1.30;;;;;;;2.67;94.05;98285.34;5055670;28;20240;-73
2021/03/14 02:06:07;;;;;;;1.67;1.30;;;;;;;2.67;93.99;98323.06;5038091;28;20703;-74
2021/03/14 02:08:32;;;;;;;3.00;1.23;;;;;;;2.61;94.17;98294.47;5038096;28;20175;-74
2021/03/14 02:10:58;;;;;;;1.47;1.37;;;;;;;2.61;94.66;98317.34;5054580;28;20175;-73
2021/03/14 02:13:27;;;;;;;3.97;1.20;;;;;;;2.60;94.67;98344.56;5054526;28;20270;-73
2021/03/14 02:15:56;;;;;;;1.93;1.30;;;;;;;2.61;95.30;98333.13;5037955;28;20177;-74
2021/03/14 02:18:21;;;;;;;1.77;1.20;;;;;;;2.64;94.96;98331.16;5054484;28;20263;-73
2021/03/14 02:20:47;;;;;;;1.50;0.90;;;;;;;2.64;94.46;98360.13;5054349;28;20173;-72
2021/03/14 02:23:35;;;;;;;4.27;1.43;;;;;;;2.56;94.61;98356.22;5037686;28;20249;-72
2021/03/14 02:26:11;;;;;;;1.10;1.00;;;;;;;2.58;94.95;98352.56;5037852;28;20185;-73
2021/03/14 02:28:37;;;;;;;1.43;1.20;;;;;;;2.58;95.20;98371.00;5055504;28;20671;-73
2021/03/14 02:31:04;;;;;;;2.23;1.37;;;;;;;2.50;95.07;98378.50;5054488;28;20256;-73
2021/03/14 02:33:31;;;;;;;2.50;1.67;;;;;;;2.59;94.82;98359.53;5037509;28;20567;-72
2021/03/14 02:35:57;;;;;;;2.43;1.30;;;;;;;2.54;95.17;98373.91;5037254;28;20684;-72
2021/03/14 02:38:23;;;;;;;2.57;1.23;;;;;;;2.55;95.01;98386.13;5037334;28;20174;-72
2021/03/14 02:40:49;;;;;;;2.67;1.20;;;;;;;2.55;95.05;98379.09;5037632;28;20179;-72
2021/03/14 02:43:14;;;;;;;3.47;1.10;;;;;;;2.56;95.53;98401.84;5037070;28;20234;-72
2021/03/14 02:45:40;;;;;;;1.40;1.30;;;;;;;2.62;95.46;98400.66;5037295;28;20178;-72
2021/03/14 02:48:06;;;;;;;3.93;1.30;;;;;;;2.58;95.09;98413.13;5053928;28;20211;-72
2021/03/14 02:50:32;;;;;;;2.33;1.40;;;;;;;2.55;95.31;98413.31;5037241;28;20211;-72
2021/03/14 02:52:58;;;;;;;2.07;1.30;;;;;;;2.59;95.78;98443.78;5036421;28;20190;-73
2021/03/14 02:55:25;;;;;;;1.10;1.00;;;;;;;2.58;95.71;98425.44;5053919;28;20178;-73
2021/03/14 02:57:51;;;;;;;1.80;1.30;;;;;;;2.53;95.75;98433.63;5036985;28;20181;-73
2021/03/14 03:00:25;;;;;;;1.40;1.23;;;;;;;2.53;95.83;98425.72;5054028;28;20180;-74
2021/03/14 03:02:52;;;;;;;2.00;1.57;;;;;;;2.42;95.98;98450.06;5036824;28;20191;-74
2021/03/14 03:05:19;;;;;;;1.77;1.63;;;;;;;2.44;95.49;98461.34;5053575;28;20284;-75
2021/03/14 03:07:46;;;;;;;1.53;1.43;;;;;;;2.41;95.51;98471.22;5037147;28;20179;-77
2021/03/14 03:10:13;;;;;;;3.80;2.03;;;;;;;2.39;96.08;98470.44;5054243;28;20637;-77
2021/03/14 03:12:39;;;;;;;2.00;1.80;;;;;;;2.36;96.42;98462.72;5055522;28;20234;-79
2021/03/14 03:15:07;;;;;;;2.00;1.80;;;;;;;2.36;96.49;98457.47;5041191;28;20587;-80
2021/03/14 03:17:32;;;;;;;3.57;2.20;;;;;;;2.37;96.38;98467.06;5041082;28;20227;-79
2021/03/14 03:19:58;;;;;;;2.30;2.10;;;;;;;2.33;96.36;98466.38;5040719;28;20178;-79
2021/03/14 03:22:23;;;;;;;2.83;2.30;;;;;;;2.37;96.77;98467.06;5041409;28;20219;-78
2021/03/14 03:24:52;;;;;;;2.30;1.80;;;;;;;2.32;97.08;98472.59;5042695;28;20212;-79
2021/03/14 03:27:18;;;;;;;3.10;2.10;;;;;;;2.33;97.26;98499.75;5042910;28;20586;-80
2021/03/14 03:29:43;;;;;;;2.50;2.30;;;;;;;2.31;97.29;98494.59;5062901;28;20173;-80
2021/03/14 03:32:08;;;;;;;2.30;2.10;;;;;;;2.32;97.04;98503.31;5063428;28;20172;-80
2021/03/14 03:34:34;;;;;;;2.57;2.03;;;;;;;2.31;97.23;98506.91;5065141;28;20194;-80
2021/03/14 03:36:59;;;;;;;3.57;2.67;;;;;;;2.27;97.65;98516.75;5066070;28;20185;-81
2021/03/14 03:39:24;;;;;;;2.90;2.50;;;;;;;2.30;97.92;98527.09;5060349;28;20178;-80
2021/03/14 03:41:52;;;;;;;4.77;2.60;;;;;;;2.34;97.84;98528.63;5062702;28;20183;-80
2021/03/14 03:44:21;;;;;;;3.33;2.70;;;;;;;2.32;97.86;98545.44;5041362;28;20201;-79
2021/03/14 03:46:46;;;;;;;4.70;2.60;;;;;;;2.30;98.16;98542.91;5058999;28;20172;-78
2021/03/14 03:49:12;;;;;;;3.30;2.50;;;;;;;2.28;98.22;98549.19;5042471;28;20181;-79
2021/03/14 03:51:39;;;;;;;2.70;2.50;;;;;;;2.29;98.18;98546.47;5040831;28;20276;-80
2021/03/14 03:54:05;;;;;;;2.57;2.27;;;;;;;2.21;97.92;98577.59;5044188;28;20192;-80
2021/03/14 03:56:31;;;;;;;3.13;2.83;;;;;;;2.25;98.18;98578.31;5061068;28;20172;-80
2021/03/14 03:58:59;;;;;;;2.90;2.60;;;;;;;2.19;98.06;98579.47;5060190;28;20226;-79
2021/03/14 04:01:25;;;;;;;2.97;2.53;;;;;;;2.15;98.32;98578.78;5042170;28;20172;-79
2021/03/14 04:03:51;;;;;;;3.30;2.70;;;;;;;2.13;98.44;98583.28;5058931;28;20224;-78
2021/03/14 04:06:17;;;;;;;3.40;2.83;;;;;;;2.13;98.52;98574.53;5058564;28;20172;-78
2021/03/14 04:08:44;;;;;;;4.93;3.77;;;;;;;2.08;98.27;98598.47;5058087;28;20221;-78
2021/03/14 04:11:12;;;;;;;7.67;4.33;;;;;;;2.15;98.21;98613.00;5039886;28;20278;-77
2021/03/14 04:13:38;;;;;;;6.57;4.53;;;;;;;2.07;98.12;98609.94;5038306;28;20275;-78
2021/03/14 04:16:04;;;;;;;7.60;5.10;;;;;;;2.05;97.95;98606.53;5037858;28;20582;-77
2021/03/14 04:18:31;;;;;;;7.23;5.00;;;;;;;2.03;98.26;98602.28;5037054;28;20186;-77
2021/03/14 04:20:57;;;;;;;10.53;6.60;;;;;;;2.03;98.36;98621.56;5037263;28;20175;-77
2021/03/14 04:23:23;;;;;;;10.00;6.23;;;;;;;2.03;97.71;98634.72;5037371;28;20253;-77
2021/03/14 04:25:51;;;;;;;12.07;6.40;;;;;;;2.03;98.26;98652.28;5036024;28;20183;-77
2021/03/14 04:28:16;;;;;;;14.40;7.20;;;;;;;2.05;98.34;98651.28;5052610;28;20176;-77
2021/03/14 04:30:42;;;;;;;12.07;6.20;;;;;;;2.08;97.89;98653.72;5052514;28;20613;-77
2021/03/14 04:33:09;;;;;;;14.00;7.53;;;;;;;2.11;98.22;98679.03;5036239;28;20211;-77
2021/03/14 04:35:34;;;;;;;15.10;7.90;;;;;;;2.13;98.49;98669.28;5053305;28;20513;-77
2021/03/14 04:38:00;;;;;;;13.20;7.47;;;;;;;2.10;98.41;98675.56;5052559;28;20179;-77
2021/03/14 04:40:26;;;;;;;11.13;6.77;;;;;;;2.17;98.79;98671.66;5035965;28;20239;-77
2021/03/14 04:42:53;;;;;;;11.80;7.57;;;;;;;2.18;98.81;98680.41;5035419;28;20231;-76
2021/03/14 04:45:18;;;;;;;10.70;6.97;;;;;;;2.22;98.70;98691.63;5035407;28;20196;-76
2021/03/14 04:47:45;;;;;;;14.67;8.03;;;;;;;2.18;98.69;98696.19;5035680;28;20216;-76
2021/03/14 04:50:13;;;;;;;12.67;7.10;;;;;;;2.22;98.66;98705.63;5051979;28;20184;-75
2021/03/14 04:52:39;;;;;;;11.80;6.80;;;;;;;2.24;98.70;98701.16;5035486;28;20175;-75
2021/03/14 04:55:07;;;;;;;13.27;7.40;;;;;;;2.22;99.33;98725.84;5052448;28;20241;-75
2021/03/14 04:57:32;;;;;;;11.07;7.27;;;;;;;2.25;99.28;98712.53;5035752;28;20173;-75
2021/03/14 05:00:00;;;;;;;14.10;7.00;;;;;;;2.32;99.40;98721.81;5035642;28;20185;-75
2021/03/14 05:02:26;;;;;;;12.13;6.83;;;;;;;2.35;98.91;98729.56;5052181;28;20205;-74
2021/03/14 05:04:52;;;;;;;10.63;7.00;;;;;;;2.37;98.88;98764.53;5051845;28;20221;-74
2021/03/14 05:07:19;;;;;;;12.57;6.43;;;;;;;2.34;98.87;98733.13;5035501;28;20178;-75
2021/03/14 05:09:44;;;;;;;10.07;6.13;;;;;;;2.37;98.86;98739.06;5052105;28;20186;-74
2021/03/14 05:12:10;;;;;;;10.50;6.03;;;;;;;2.36;99.11;98752.31;5035638;28;20184;-75
2021/03/14 05:14:38;;;;;;;11.43;6.40;;;;;;;2.38;98.69;98750.44;5052828;28;20188;-76
2021/03/14 05:17:04;;;;;;;11.10;6.67;;;;;;;2.42;99.25;98771.28;5039499;28;20184;-76
2021/03/14 05:19:33;;;;;;;9.63;6.10;;;;;;;2.46;99.46;98756.16;5056219;28;20212;-76
2021/03/14 05:21:59;;;;;;;9.73;6.43;;;;;;;2.44;99.41;98764.13;5039339;28;20206;-76
2021/03/14 05:24:25;;;;;;;10.33;6.57;;;;;;;2.47;99.16;98776.28;5057330;28;20549;-76
2021/03/14 05:26:51;;;;;;;12.97;6.13;;;;;;;2.43;99.04;98775.59;5039329;28;20184;-76
2021/03/14 05:29:16;;;;;;;8.60;5.27;;;;;;;2.41;99.65;98795.91;5039083;28;20603;-77
2021/03/14 05:31:41;;;;;;;7.73;4.67;;;;;;;2.46;99.83;98800.91;5039633;28;20594;-78
2021/03/14 05:34:09;;;;;;;4.80;3.43;;;;;;;2.30;98.90;98819.31;5042269;28;20255;-79
2021/03/14 05:36:35;;;;;;;6.50;4.37;;;;;;;2.28;99.11;98804.50;5046068;28;20548;-80
2021/03/14 05:39:03;;;;;;;9.37;4.70;;;;;;;2.25;99.88;98817.84;5048819;28;20275;-79
2021/03/14 05:41:28;;;;;;;8.90;5.30;;;;;;;2.36;100.00;98816.34;5044403;28;20176;-79
2021/03/14 05:43:54;;;;;;;11.60;5.50;;;;;;;2.45;100.00;98815.00;5058832;28;20207;-79
2021/03/14 05:46:20;;;;;;;10.20;5.47;;;;;;;2.53;100.00;98812.84;5060141;28;20199;-80
2021/03/14 05:48:45;;;;;;;11.07;5.90;;;;;;;2.54;100.00;98840.88;5049299;28;20527;-80
2021/03/14 05:51:15;;;;;;;12.57;5.50;;;;;;;2.57;100.00;98829.31;5047658;28;20180;-80
2021/03/14 05:53:41;;;;;;;11.37;5.83;;;;;;;2.62;100.00;98846.63;5044497;28;20567;-79
2021/03/14 05:56:07;;;;;;;8.77;5.53;;;;;;;2.64;100.00;98834.22;5057380;28;20179;-79
2021/03/14 05:58:35;;;;;;;10.40;5.33;;;;;;;2.60;100.00;98856.38;5058858;28;20177;-79
2021/03/14 06:01:02;;;;;;;10.00;6.00;;;;;;;2.62;99.72;98877.38;5062501;28;20180;-80
2021/03/14 06:03:27;;;;;;;11.43;6.20;;;;;;;2.62;99.64;98864.19;5064336;22;20283;-72
2021/03/14 06:05:52;;;;;;;12.90;5.30;;;;;;;2.66;99.69;98886.81;5058262;28;20528;-72
2021/03/14 06:08:18;;;;;;;10.47;5.80;;;;;;;2.68;99.40;98879.69;5074767;28;20200;-72
2021/03/14 06:10:43;;;;;;;9.90;5.60;;;;;;;2.62;99.29;98885.28;5075967;28;20181;-72
2021/03/14 06:13:09;;;;;;;12.47;6.33;;;;;;;2.61;99.20;98899.38;5074571;28;20177;-72
2021/03/14 06:15:34;;;;;;;10.17;5.23;;;;;;;2.65;99.39;98891.22;5074341;28;20277;-73
2021/03/14 06:18:00;;;;;;;9.87;4.80;;;;;;;2.62;98.88;98893.16;5058237;28;20180;-72
2021/03/14 06:20:41;;;;;;;7.53;4.33;;;;;;;2.58;99.13;98915.31;5057637;28;20192;-73
2021/03/14 06:23:11;;;;;;;11.50;5.37;;;;;;;2.58;98.74;98913.53;5074398;28;20192;-73
2021/03/14 06:25:38;;;;;;;7.97;5.13;;;;;;;2.60;98.85;98927.50;5057469;28;20197;-73
2021/03/14 06:28:03;;;;;;;10.93;4.90;;;;;;;2.61;98.93;98925.72;5056794;28;20208;-72
2021/03/14 06:30:29;;;;;;;9.63;4.80;;;;;;;2.58;98.55;98933.75;5075761;28;20205;-71
2021/03/14 06:33:03;;;;;;;7.80;4.70;;;;;;;2.62;98.93;98941.44;5057613;28;20187;-72
2021/03/14 06:35:46;;;;;;;9.13;4.60;;;;;;;2.62;98.47;98943.22;5057466;28;20203;-72
2021/03/14 06:38:41;;;;;;;9.47;4.37;;;;;;;2.60;98.37;98956.47;5074402;28;20586;-73
2021/03/14 06:41:06;;;;;;;9.07;4.50;;;;;;;2.61;98.41;98952.06;5065304;28;20589;-73
2021/03/14 06:43:35;;;;;;;7.10;4.40;;;;;;;2.60;98.65;98959.09;5075213;28;20262;-72
2021/03/14 06:46:01;;;;;;;7.17;3.97;;;;;;;2.65;98.35;98969.41;5057184;28;20178;-72
2021/03/14 06:48:27;;;;;;;8.97;4.10;;;;;;;2.68;98.19;98985.91;5075532;28;20698;-72
2021/03/14 06:50:54;;;;;;;7.17;3.60;;;;;;;2.67;98.45;98983.34;5073896;28;20307;-72
2021/03/14 06:53:21;;;;;;;9.40;4.13;;;;;;;2.66;98.47;98992.19;5056916;28;20209;-72
2021/03/14 06:55:49;;;;;;;5.83;3.70;;;;;;;2.69;97.97;98990.25;5057034;28;20206;-72
2021/03/14 06:58:21;;;;;;;9.57;4.37;;;;;;;2.69;97.98;99007.81;5073686;28;20176;-73
2021/03/14 07:01:13;;;;;;;9.43;3.90;;;;;;;2.70;98.11;99017.44;5076091;28;20173;-73
2021/03/14 07:03:41;;;;;;;6.50;3.50;;;;;;;2.70;97.44;99022.69;5068104;28;20226;-72
2021/03/14 07:06:18;;;;;;;8.73;3.70;;;;;;;2.71;97.43;99029.69;5056942;28;20221;-73
2021/03/14 07:08:44;;;;;;;7.23;3.97;;;;;;;2.68;97.04;99037.72;5073719;28;20175;-73
2021/03/14 07:11:10;;;;;;;7.33;3.57;;;;;;;2.66;97.64;99048.34;5073550;28;20648;-72
2021/03/14 07:13:36;;;;;;;5.23;3.30;;;;;;;2.72;97.66;99037.50;5074035;28;20200;-73
2021/03/14 07:16:02;;;;;;;4.13;3.00;;;;;;;2.70;96.96;99067.50;5073935;28;20205;-74
2021/03/14 07:18:28;;;;;;;8.23;3.67;;;;;;;2.72;96.74;99084.06;5073762;28;20179;-73
2021/03/14 07:20:53;;;;;;;6.13;3.40;;;;;;;2.70;96.75;99080.66;5073481;28;20260;-73
2021/03/14 07:23:31;;;;;;;6.00;3.47;;;;;;;2.72;97.13;99074.38;5074440;28;20169;-73
2021/03/14 07:25:56;;;;;;;7.13;3.40;;;;;;;2.73;96.77;99075.25;5074196;28;20180;-73
2021/03/14 07:28:22;;;;;;;9.67;3.93;;;;;;;2.74;97.11;99090.97;5074759;28;20636;-73
2021/03/14 07:30:48;;;;;;;6.20;3.37;;;;;;;2.80;97.06;99089.81;5073920;28;20182;-72
2021/03/14 07:33:13;;;;;;;5.60;3.30;;;;;;;2.73;96.70;99089.25;5073327;28;20264;-71
2021/03/14 07:35:39;;;;;;;4.13;2.70;;;;;;;2.69;96.67;99095.63;5056396;28;20288;-74
2021/03/14 07:38:04;;;;;;;5.57;2.23;;;;;;;2.63;96.63;99106.44;5074468;28;20177;-71
2021/03/14 07:40:30;;;;;;;6.50;2.40;;;;;;;2.64;96.61;99102.88;5074771;28;20199;-72
2021/03/14 07:42:57;;;;;;;5.87;3.20;;;;;;;2.67;97.96;99113.28;5073112;28;20173;-72
2021/03/14 07:45:22;;;;;;;11.33;3.50;;;;;;;2.70;98.65;99128.06;5072638;28;20243;-73
2021/03/14 07:47:47;;;;;;;5.97;3.50;;;;;;;2.71;97.53;99141.19;5056114;28;20205;-73
2021/03/14 07:50:19;;;;;;;8.10;3.70;;;;;;;2.78;98.25;99139.09;5072967;28;20189;-73
2021/03/14 07:52:45;;;;;;;7.20;3.37;;;;;;;2.78;98.19;99171.56;5056074;28;20170;-73
2021/03/14 07:55:20;;;;;;;9.33;3.70;;;;;;;2.85;97.96;99177.41;5072376;28;20680;-73
2021/03/14 07:57:47;;;;;;;7.50;3.30;;;;;;;2.82;96.38;99154.69;5055959;28;20170;-73
2021/03/14 08:00:27;;;;;;;7.17;3.90;;;;;;;2.76;96.34;99165.53;5072903;28;20170;-72
2021/03/14 08:02:57;;;;;;;5.27;3.40;;;;;;;2.82;96.40;99173.13;5072602;28;20543;-73
2021/03/14 08:05:41;;;;;;;6.53;3.40;;;;;;;2.78;96.42;99163.66;5055726;28;20316;-73
2021/03/14 08:08:07;;;;;;;7.53;3.67;;;;;;;2.92;96.35;99185.84;5074123;28;20174;-74
2021/03/14 08:10:36;;;;;;;7.40;3.63;;;;;;;2.98;95.89;99204.03;5072900;28;20181;-73
2021/03/14 08:13:03;;;;;;;6.97;3.63;;;;;;;2.92;95.74;99230.66;5074035;28;20543;-73
2021/03/14 08:15:30;;;;;;;8.00;4.03;;;;;;;2.89;95.59;99204.44;5055721;28;20184;-73
2021/03/14 08:17:58;;;;;;;5.73;3.60;;;;;;;2.99;95.51;99200.47;5072875;28;20177;-72
2021/03/14 08:20:45;;;;;;;7.37;3.07;;;;;;;2.95;94.87;99227.88;5073181;28;20211;-73
2021/03/14 08:23:14;;;;;;;6.83;3.43;;;;;;;3.06;95.28;99246.69;5072328;28;20169;-72
2021/03/14 08:25:42;;;;;;;6.03;3.60;;;;;;;3.07;95.04;99227.31;5073259;28;20197;-73
2021/03/14 08:28:22;;;;;;;7.40;3.50;;;;;;;2.93;95.52;99249.03;5073592;28;20316;-72
2021/03/14 08:30:52;;;;;;;5.37;3.40;;;;;;;2.86;94.90;99249.41;5073813;28;20191;-72
2021/03/14 08:33:17;;;;;;;6.63;3.47;;;;;;;2.93;94.81;99261.34;5072572;28;20189;-72
2021/03/14 08:35:44;;;;;;;4.57;3.20;;;;;;;2.72;94.16;99248.25;5072199;28;20178;-72
2021/03/14 08:38:26;;;;;;;4.83;3.70;;;;;;;2.66;95.99;99282.78;5055628;28;20174;-72
2021/03/14 08:41:24;;;;;;;5.57;3.60;;;;;;;2.67;95.76;99302.09;5072710;28;20198;-73
2021/03/14 08:44:07;;;;;;;5.63;3.37;;;;;;;2.73;95.29;99284.22;5056070;28;20720;-72
2021/03/14 08:46:50;;;;;;;6.83;3.90;;;;;;;2.57;94.61;99280.56;5072780;28;20154;-74
2021/03/14 08:49:20;;;;;;;6.23;4.40;;;;;;;2.54;94.79;99285.97;5074664;28;20165;-72
2021/03/14 08:51:46;;;;;;;10.53;5.50;;;;;;;2.46;94.73;99301.25;5079210;28;20264;-72
2021/03/14 08:54:13;;;;;;;11.13;5.70;;;;;;;2.46;95.80;99312.63;5079093;28;20677;-73
2021/03/14 08:56:38;;;;;;;8.57;5.53;;;;;;;2.45;96.19;99317.97;5079442;28;20270;-72
2021/03/14 08:59:07;;;;;;;8.03;4.70;;;;;;;2.45;96.03;99328.50;5079342;28;20692;-72
2021/03/14 09:01:33;;;;;;;8.43;5.10;;;;;;;2.40;96.58;99341.03;5079965;28;20520;-72
2021/03/14 09:04:09;;;;;;;10.97;5.80;;;;;;;2.37;96.67;99343.78;5078780;28;20208;-73
2021/03/14 09:06:35;;;;;;;9.00;5.30;;;;;;;2.39;96.42;99342.81;5062393;28;20175;-73
2021/03/14 09:09:04;;;;;;;12.87;5.93;;;;;;;2.42;96.66;99353.19;5079523;28;20190;-73
2021/03/14 09:11:37;;;;;;;8.73;5.37;;;;;;;2.13;95.27;99349.16;5079922;28;20264;-73
2021/03/14 09:14:18;;;;;;;13.33;6.37;;;;;;;1.97;95.87;99377.06;5062864;28;20202;-73
2021/03/14 09:16:44;;;;;;;12.67;6.30;;;;;;;2.05;97.27;99380.22;5080736;28;20543;-74
2021/03/14 09:19:10;;;;;;;14.60;6.87;;;;;;;2.18;97.35;99413.00;5087881;28;20163;-73
2021/03/14 09:21:56;;;;;;;10.40;5.90;;;;;;;2.18;95.58;99386.69;5063092;28;20187;-71
2021/03/14 09:24:50;;;;;;;9.53;5.53;;;;;;;2.16;95.29;99408.72;5080222;28;20207;-72
2021/03/14 09:27:20;;;;;;;10.47;5.43;;;;;;;2.03;95.17;99410.16;5079182;28;20516;-73
2021/03/14 09:30:07;;;;;;;9.97;5.70;;;;;;;2.04;95.46;99399.56;5062241;28;20176;-71
2021/03/14 09:32:42;;;;;;;10.80;5.00;;;;;;;2.11;95.19;99429.13;5080330;28;20173;-73
2021/03/14 09:35:17;;;;;;;11.20;5.83;;;;;;;2.05;94.86;99418.84;5079462;28;20186;-73
2021/03/14 09:37:57;;;;;;;10.33;5.53;;;;;;;2.05;94.63;99426.75;5079663;28;20169;-73
2021/03/14 09:40:42;;;;;;;10.27;5.10;;;;;;;2.20;94.19;99426.09;5079469;28;20164;-74
2021/03/14 09:43:10;;;;;;;9.47;4.93;;;;;;;2.30;93.52;99427.47;5083024;28;20160;-71
2021/03/14 09:45:37;;;;;;;7.33;4.83;;;;;;;2.34;93.59;99444.84;5080450;28;20740;-72
2021/03/14 09:48:36;;;;;;;6.20;4.27;;;;;;;2.41;93.22;99441.03;5079265;28;20253;-72
2021/03/14 09:51:04;;;;;;;7.93;4.80;;;;;;;2.46;92.35;99446.09;5078185;28;20215;-72
2021/03/14 09:53:32;;;;;;;7.67;4.67;;;;;;;2.61;93.15;99448.09;5062427;28;20267;-72
2021/03/14 09:56:04;;;;;;;10.67;5.13;;;;;;;2.84;92.29;99473.47;5062837;28;20168;-73
2021/03/14 09:58:30;;;;;;;7.60;4.77;;;;;;;2.94;91.25;99471.28;5079317;28;20248;-72
2021/03/14 10:00:57;;;;;;;8.20;5.47;;;;;;;2.82;90.34;99473.53;5077681;28;20599;-72
2021/03/14 10:03:27;;;;;;;7.97;4.80;;;;;;;2.85;90.99;99472.53;5075428;28;20178;-73
2021/03/14 10:06:00;;;;;;;8.83;5.57;;;;;;;2.89;91.62;99476.75;5075911;28;20164;-73
2021/03/14 10:08:34;;;;;;;7.37;5.00;;;;;;;2.81;91.38;99489.41;5077611;28;20165;-73
2021/03/14 10:11:04;;;;;;;8.37;5.20;;;;;;;2.78;92.17;99477.22;5058874;28;20171;-73
2021/03/14 10:13:30;;;;;;;7.00;4.70;;;;;;;2.66;91.58;99519.91;5059392;28;20199;-72
2021/03/14 10:15:57;;;;;;;10.67;4.97;;;;;;;2.60;91.88;99478.00;5078539;28;20171;-71
2021/03/14 10:18:24;;;;;;;11.50;4.97;;;;;;;2.67;92.51;99508.44;5079666;28;20178;-73
2021/03/14 10:20:51;;;;;;;9.33;4.80;;;;;;;2.76;92.67;99517.72;5062954;28;20725;-73
2021/03/14 10:23:22;;;;;;;9.07;4.90;;;;;;;2.67;92.59;99513.69;5077071;28;20172;-72
2021/03/14 10:25:47;;;;;;;7.27;4.97;;;;;;;2.86;92.25;99513.78;5076760;28;20160;-71
2021/03/14 10:28:15;;;;;;;7.57;4.90;;;;;;;2.91;91.25;99522.34;5076637;28;20174;-72
2021/03/14 10:30:42;;;;;;;7.67;4.67;;;;;;;2.97;91.21;99545.78;5075325;28;20178;-72
2021/03/14 10:33:12;;;;;;;8.43;5.23;;;;;;;2.86;92.60;99524.31;5059580;28;20178;-72
2021/03/14 10:35:42;;;;;;;10.17;5.17;;;;;;;3.04;92.72;99530.59;5076597;28;20193;-72
2021/03/14 10:38:21;;;;;;;8.83;4.87;;;;;;;3.01;90.53;99551.81;5077912;28;20222;-72
2021/03/14 10:40:47;;;;;;;9.60;4.70;;;;;;;3.25;90.98;99542.84;5082670;28;20169;-71
2021/03/14 10:43:23;;;;;;;8.30;3.93;;;;;;;3.47;88.74;99560.38;5074976;28;20593;-72
2021/03/14 10:45:50;;;;;;;6.50;4.17;;;;;;;3.55;89.35;99564.38;5074973;28;20580;-72
2021/03/14 10:48:16;;;;;;;7.87;3.97;;;;;;;4.01;85.54;99580.78;5058002;28;20188;-72
2021/03/14 10:50:42;;;;;;;4.43;3.27;;;;;;;3.82;85.96;99578.13;5076317;28;20174;-71
2021/03/14 10:53:18;;;;;;;5.67;3.60;;;;;;;3.88;86.58;99614.81;5074821;28;20209;-72
2021/03/14 10:55:44;;;;;;;4.33;3.50;;;;;;;3.87;83.34;99623.66;5083317;28;20199;-72
2021/03/14 10:58:13;;;;;;;5.43;3.30;;;;;;;4.01;82.99;99604.53;5085743;28;20203;-73
2021/03/14 11:00:44;;;;;;;6.20;3.77;;;;;;;3.92;80.83;99619.03;5082400;28;20171;-71
2021/03/14 11:03:27;;;;;;;6.63;3.50;;;;;;;3.93;79.77;99611.97;5088056;28;20186;-72
2021/03/14 11:06:06;;;;;;;4.73;3.20;;;;;;;4.22;79.19;99626.50;5081514;28;20167;-72
2021/03/14 11:09:10;;;;;;;8.70;3.87;;;;;;;4.70;76.04;99633.91;5077939;28;20162;-71
2021/03/14 11:11:39;;;;;;;4.10;2.87;;;;;;;4.74;75.50;99642.53;5042865;28;20194;-72
2021/03/14 11:14:38;;;;;;;5.27;3.20;;;;;;;4.65;76.12;99649.97;5046569;28;20699;-71
2021/03/14 11:17:14;;;;;;;7.20;3.67;;;;;;;4.56;75.35;99655.69;5068672;28;20182;-71
2021/03/14 11:19:44;;;;;;;7.00;3.07;;;;;;;4.59;72.08;99679.34;5057168;28;20174;-71
2021/03/14 11:22:12;;;;;;;5.43;3.30;;;;;;;4.57;73.36;99665.34;5074007;28;20577;-70
2021/03/14 11:24:38;;;;;;;7.50;3.70;;;;;;;4.35;73.14;99672.53;5064310;28;20213;-71
2021/03/14 11:27:04;;;;;;;6.70;3.30;;;;;;;5.03;71.93;99681.66;5069570;28;20174;-72
2021/03/14 11:29:29;;;;;;;5.00;3.20;;;;;;;5.37;70.80;99674.72;5084000;28;20704;-71
2021/03/14 11:31:55;;;;;;;6.67;2.97;;;;;;;5.99;65.24;99657.44;5087922;28;20167;-72
2021/03/14 11:34:20;;;;;;;3.87;2.57;;;;;;;5.42;65.82;99668.25;5077662;28;20706;-71
2021/03/14 11:36:48;;;;;;;5.67;2.80;;;;;;;5.17;66.90;99678.31;5074246;28;20547;-71
2021/03/14 11:39:14;;;;;;;4.57;2.43;;;;;;;4.70;68.60;99700.84;5077705;28;20206;-72
2021/03/14 11:41:39;;;;;;;6.63;2.53;;;;;;;5.12;67.71;99685.63;5082928;28;20182;-73
2021/03/14 11:44:06;;;;;;;4.80;2.80;;;;;;;5.36;66.17;99686.22;5085343;28;20202;-72